sensor_id;sensor_type;location;lat;lon;timestamp;P1;durP1;ratioP1;P2;durP2;ratioP2
55330;SDS011;58851;42.984;20.336;2022-07-22T00:00:13;14.25;;;6.78;;
55330;SDS011;58851;42.984;20.336;2022-07-22T00:02:40;15.73;;;7.18;;
55330;SDS011;58851;42.984;20.336;2022-07-22T00:05:06;12.82;;;7.50;;
55330;SDS011;58851;42.984;20.336;2022-07-22T00:07:32;15.05;;;7.72;;
55330;SDS011;58851;42.984;20.336;2022-07-22T00:09:58;19.75;;;7.45;;
55330;SDS011;58851;42.984;20.336;2022-07-22T00:12:24;11.00;;;6.75;;
55330;SDS011;58851;42.984;20.336;2022-07-22T00:14:50;16.50;;;6.78;;
55330;SDS011;58851;42.984;20.336;2022-07-22T00:17:16;10.48;;;5.95;;
55330;SDS011;58851;42.984;20.336;2022-07-22T00:19:42;14.45;;;7.15;;
55330;SDS011;58851;42.984;20.336;2022-07-22T00:22:08;16.33;;;6.70;;
55330;SDS011;58851;42.984;20.336;2022-07-22T00:24:34;10.75;;;6.90;;
55330;SDS011;58851;42.984;20.336;2022-07-22T00:27:00;8.50;;;5.97;;
55330;SDS011;58851;42.984;20.336;2022-07-22T00:29:26;9.70;;;5.97;;
55330;SDS011;58851;42.984;20.336;2022-07-22T00:31:52;11.30;;;6.32;;
55330;SDS011;58851;42.984;20.336;2022-07-22T00:34:17;13.38;;;6.53;;
55330;SDS011;58851;42.984;20.336;2022-07-22T00:36:43;10.05;;;6.75;;
55330;SDS011;58851;42.984;20.336;2022-07-22T00:39:09;10.50;;;6.32;;
55330;SDS011;58851;42.984;20.336;2022-07-22T00:41:35;14.20;;;7.07;;
55330;SDS011;58851;42.984;20.336;2022-07-22T00:44:02;9.52;;;6.68;;
55330;SDS011;58851;42.984;20.336;2022-07-22T00:46:30;11.82;;;6.28;;
55330;SDS011;58851;42.984;20.336;2022-07-22T00:48:57;11.15;;;6.40;;
55330;SDS011;58851;42.984;20.336;2022-07-22T00:51:24;16.60;;;7.15;;
55330;SDS011;58851;42.984;20.336;2022-07-22T00:53:52;9.45;;;6.45;;
55330;SDS011;58851;42.984;20.336;2022-07-22T00:56:19;16.02;;;6.57;;
55330;SDS011;58851;42.984;20.336;2022-07-22T00:58:45;10.43;;;6.25;;
55330;SDS011;58851;42.984;20.336;2022-07-22T01:01:13;12.20;;;7.65;;
55330;SDS011;58851;42.984;20.336;2022-07-22T01:03:40;12.68;;;6.57;;
55330;SDS011;58851;42.984;20.336;2022-07-22T01:06:06;8.85;;;6.03;;
55330;SDS011;58851;42.984;20.336;2022-07-22T01:08:32;13.07;;;5.80;;
55330;SDS011;58851;42.984;20.336;2022-07-22T01:13:35;13.60;;;6.95;;
55330;SDS011;58851;42.984;20.336;2022-07-22T01:16:02;9.20;;;6.35;;
55330;SDS011;58851;42.984;20.336;2022-07-22T01:18:28;15.88;;;7.13;;
55330;SDS011;58851;42.984;20.336;2022-07-22T01:20:54;14.00;;;6.47;;
55330;SDS011;58851;42.984;20.336;2022-07-22T01:23:20;15.20;;;8.10;;
55330;SDS011;58851;42.984;20.336;2022-07-22T01:25:46;14.45;;;6.80;;
55330;SDS011;58851;42.984;20.336;2022-07-22T01:28:12;14.73;;;7.07;;
55330;SDS011;58851;42.984;20.336;2022-07-22T01:30:38;14.05;;;7.05;;
55330;SDS011;58851;42.984;20.336;2022-07-22T01:33:04;10.98;;;6.25;;
55330;SDS011;58851;42.984;20.336;2022-07-22T01:35:30;11.07;;;8.23;;
55330;SDS011;58851;42.984;20.336;2022-07-22T01:37:55;14.85;;;7.43;;
55330;SDS011;58851;42.984;20.336;2022-07-22T01:40:21;11.68;;;6.75;;
55330;SDS011;58851;42.984;20.336;2022-07-22T01:42:47;10.85;;;6.78;;
55330;SDS011;58851;42.984;20.336;2022-07-22T01:45:13;10.68;;;7.18;;
55330;SDS011;58851;42.984;20.336;2022-07-22T01:47:39;13.00;;;7.13;;
55330;SDS011;58851;42.984;20.336;2022-07-22T01:50:05;16.10;;;7.47;;
55330;SDS011;58851;42.984;20.336;2022-07-22T01:52:34;13.00;;;6.78;;
55330;SDS011;58851;42.984;20.336;2022-07-22T01:55:01;12.43;;;7.00;;
55330;SDS011;58851;42.984;20.336;2022-07-22T01:57:27;10.73;;;7.18;;
55330;SDS011;58851;42.984;20.336;2022-07-22T01:59:53;13.73;;;7.45;;
55330;SDS011;58851;42.984;20.336;2022-07-22T02:02:41;15.90;;;7.03;;
55330;SDS011;58851;42.984;20.336;2022-07-22T02:05:07;18.63;;;6.70;;
55330;SDS011;58851;42.984;20.336;2022-07-22T02:07:33;15.55;;;7.30;;
55330;SDS011;58851;42.984;20.336;2022-07-22T02:09:59;15.32;;;7.47;;
55330;SDS011;58851;42.984;20.336;2022-07-22T02:12:25;14.00;;;7.72;;
55330;SDS011;58851;42.984;20.336;2022-07-22T02:14:51;12.77;;;7.00;;
55330;SDS011;58851;42.984;20.336;2022-07-22T02:17:17;13.90;;;7.05;;
55330;SDS011;58851;42.984;20.336;2022-07-22T02:19:43;13.25;;;6.78;;
55330;SDS011;58851;42.984;20.336;2022-07-22T02:22:09;13.13;;;7.18;;
55330;SDS011;58851;42.984;20.336;2022-07-22T02:24:35;12.20;;;7.05;;
55330;SDS011;58851;42.984;20.336;2022-07-22T02:27:01;12.55;;;7.78;;
55330;SDS011;58851;42.984;20.336;2022-07-22T02:29:28;13.10;;;7.85;;
55330;SDS011;58851;42.984;20.336;2022-07-22T02:31:55;13.00;;;7.38;;
55330;SDS011;58851;42.984;20.336;2022-07-22T02:34:21;17.30;;;7.90;;
55330;SDS011;58851;42.984;20.336;2022-07-22T02:36:46;8.88;;;6.72;;
55330;SDS011;58851;42.984;20.336;2022-07-22T02:39:12;13.38;;;7.47;;
55330;SDS011;58851;42.984;20.336;2022-07-22T02:41:38;14.82;;;7.35;;
55330;SDS011;58851;42.984;20.336;2022-07-22T02:44:04;13.05;;;7.55;;
55330;SDS011;58851;42.984;20.336;2022-07-22T02:46:30;19.83;;;7.35;;
55330;SDS011;58851;42.984;20.336;2022-07-22T02:48:56;9.82;;;7.68;;
55330;SDS011;58851;42.984;20.336;2022-07-22T02:51:22;10.60;;;6.78;;
55330;SDS011;58851;42.984;20.336;2022-07-22T02:53:48;11.02;;;7.25;;
55330;SDS011;58851;42.984;20.336;2022-07-22T02:56:15;12.20;;;7.82;;
55330;SDS011;58851;42.984;20.336;2022-07-22T02:58:41;12.65;;;8.13;;
55330;SDS011;58851;42.984;20.336;2022-07-22T03:01:07;10.95;;;7.90;;
55330;SDS011;58851;42.984;20.336;2022-07-22T03:03:33;12.32;;;8.57;;
55330;SDS011;58851;42.984;20.336;2022-07-22T03:05:59;13.05;;;8.13;;
55330;SDS011;58851;42.984;20.336;2022-07-22T03:08:25;16.08;;;8.63;;
55330;SDS011;58851;42.984;20.336;2022-07-22T03:10:51;10.45;;;8.85;;
55330;SDS011;58851;42.984;20.336;2022-07-22T03:13:18;10.95;;;8.43;;
55330;SDS011;58851;42.984;20.336;2022-07-22T03:15:44;11.38;;;7.40;;
55330;SDS011;58851;42.984;20.336;2022-07-22T03:18:09;11.50;;;7.57;;
55330;SDS011;58851;42.984;20.336;2022-07-22T03:20:35;14.02;;;7.70;;
55330;SDS011;58851;42.984;20.336;2022-07-22T03:23:01;9.63;;;7.10;;
55330;SDS011;58851;42.984;20.336;2022-07-22T03:25:27;12.75;;;8.02;;
55330;SDS011;58851;42.984;20.336;2022-07-22T03:27:55;10.45;;;7.72;;
55330;SDS011;58851;42.984;20.336;2022-07-22T03:30:21;18.38;;;8.13;;
55330;SDS011;58851;42.984;20.336;2022-07-22T03:32:47;12.98;;;7.90;;
55330;SDS011;58851;42.984;20.336;2022-07-22T03:35:13;11.60;;;8.85;;
55330;SDS011;58851;42.984;20.336;2022-07-22T03:37:40;15.00;;;7.97;;
55330;SDS011;58851;42.984;20.336;2022-07-22T03:40:06;16.42;;;7.97;;
55330;SDS011;58851;42.984;20.336;2022-07-22T03:42:33;10.48;;;7.32;;
55330;SDS011;58851;42.984;20.336;2022-07-22T03:44:59;13.65;;;7.13;;
55330;SDS011;58851;42.984;20.336;2022-07-22T03:47:24;10.10;;;6.72;;
55330;SDS011;58851;42.984;20.336;2022-07-22T03:49:50;13.13;;;7.05;;
55330;SDS011;58851;42.984;20.336;2022-07-22T03:52:17;11.07;;;7.53;;
55330;SDS011;58851;42.984;20.336;2022-07-22T03:54:43;12.57;;;8.02;;
55330;SDS011;58851;42.984;20.336;2022-07-22T03:57:09;10.90;;;7.55;;
55330;SDS011;58851;42.984;20.336;2022-07-22T03:59:35;10.45;;;7.03;;
55330;SDS011;58851;42.984;20.336;2022-07-22T04:02:02;20.77;;;8.68;;
55330;SDS011;58851;42.984;20.336;2022-07-22T04:04:28;9.57;;;7.55;;
55330;SDS011;58851;42.984;20.336;2022-07-22T04:06:54;14.65;;;8.25;;
55330;SDS011;58851;42.984;20.336;2022-07-22T04:09:20;13.25;;;8.45;;
55330;SDS011;58851;42.984;20.336;2022-07-22T04:11:46;11.25;;;7.65;;
55330;SDS011;58851;42.984;20.336;2022-07-22T04:14:12;14.43;;;8.13;;
55330;SDS011;58851;42.984;20.336;2022-07-22T04:16:38;10.60;;;8.38;;
55330;SDS011;58851;42.984;20.336;2022-07-22T04:19:04;14.00;;;8.15;;
55330;SDS011;58851;42.984;20.336;2022-07-22T04:21:30;13.20;;;8.23;;
55330;SDS011;58851;42.984;20.336;2022-07-22T04:23:56;12.65;;;7.65;;
55330;SDS011;58851;42.984;20.336;2022-07-22T04:26:22;10.07;;;7.43;;
55330;SDS011;58851;42.984;20.336;2022-07-22T04:28:48;12.98;;;7.72;;
55330;SDS011;58851;42.984;20.336;2022-07-22T04:31:14;14.32;;;7.15;;
55330;SDS011;58851;42.984;20.336;2022-07-22T04:33:40;12.90;;;7.32;;
55330;SDS011;58851;42.984;20.336;2022-07-22T04:36:06;15.55;;;7.47;;
55330;SDS011;58851;42.984;20.336;2022-07-22T04:38:32;8.90;;;7.07;;
55330;SDS011;58851;42.984;20.336;2022-07-22T04:40:58;13.95;;;7.35;;
55330;SDS011;58851;42.984;20.336;2022-07-22T04:43:23;9.32;;;7.47;;
55330;SDS011;58851;42.984;20.336;2022-07-22T04:45:49;11.95;;;8.55;;
55330;SDS011;58851;42.984;20.336;2022-07-22T04:48:15;12.20;;;8.20;;
55330;SDS011;58851;42.984;20.336;2022-07-22T04:50:42;13.65;;;7.22;;
55330;SDS011;58851;42.984;20.336;2022-07-22T04:53:08;10.20;;;7.75;;
55330;SDS011;58851;42.984;20.336;2022-07-22T04:55:34;10.43;;;7.20;;
55330;SDS011;58851;42.984;20.336;2022-07-22T04:58:00;12.10;;;7.68;;
55330;SDS011;58851;42.984;20.336;2022-07-22T05:00:26;9.68;;;7.47;;
55330;SDS011;58851;42.984;20.336;2022-07-22T05:02:52;11.18;;;6.78;;
55330;SDS011;58851;42.984;20.336;2022-07-22T05:05:17;13.82;;;7.90;;
55330;SDS011;58851;42.984;20.336;2022-07-22T05:07:43;12.07;;;7.82;;
55330;SDS011;58851;42.984;20.336;2022-07-22T05:10:09;11.82;;;8.68;;
55330;SDS011;58851;42.984;20.336;2022-07-22T05:12:35;16.60;;;6.70;;
55330;SDS011;58851;42.984;20.336;2022-07-22T05:15:02;14.75;;;8.43;;
55330;SDS011;58851;42.984;20.336;2022-07-22T05:17:28;14.98;;;8.45;;
55330;SDS011;58851;42.984;20.336;2022-07-22T05:19:54;16.23;;;8.50;;
55330;SDS011;58851;42.984;20.336;2022-07-22T05:22:20;12.20;;;8.10;;
55330;SDS011;58851;42.984;20.336;2022-07-22T05:24:45;17.38;;;8.32;;
55330;SDS011;58851;42.984;20.336;2022-07-22T05:27:11;13.18;;;8.85;;
55330;SDS011;58851;42.984;20.336;2022-07-22T05:29:37;14.18;;;8.55;;
55330;SDS011;58851;42.984;20.336;2022-07-22T05:32:03;16.38;;;8.30;;
55330;SDS011;58851;42.984;20.336;2022-07-22T05:34:29;14.35;;;8.35;;
55330;SDS011;58851;42.984;20.336;2022-07-22T05:36:55;16.20;;;8.77;;
55330;SDS011;58851;42.984;20.336;2022-07-22T05:39:21;12.48;;;8.18;;
55330;SDS011;58851;42.984;20.336;2022-07-22T05:41:47;14.10;;;8.25;;
55330;SDS011;58851;42.984;20.336;2022-07-22T05:44:13;16.08;;;8.13;;
55330;SDS011;58851;42.984;20.336;2022-07-22T05:46:39;18.20;;;8.18;;
55330;SDS011;58851;42.984;20.336;2022-07-22T05:49:05;14.10;;;8.30;;
55330;SDS011;58851;42.984;20.336;2022-07-22T05:51:32;15.05;;;7.20;;
55330;SDS011;58851;42.984;20.336;2022-07-22T05:53:59;12.50;;;7.43;;
55330;SDS011;58851;42.984;20.336;2022-07-22T05:56:27;14.85;;;7.40;;
55330;SDS011;58851;42.984;20.336;2022-07-22T05:58:54;14.82;;;8.02;;
55330;SDS011;58851;42.984;20.336;2022-07-22T06:01:21;12.25;;;8.25;;
55330;SDS011;58851;42.984;20.336;2022-07-22T06:03:47;18.45;;;8.10;;
55330;SDS011;58851;42.984;20.336;2022-07-22T06:06:13;15.80;;;7.22;;
55330;SDS011;58851;42.984;20.336;2022-07-22T06:08:39;10.75;;;7.30;;
55330;SDS011;58851;42.984;20.336;2022-07-22T06:11:05;12.38;;;7.03;;
55330;SDS011;58851;42.984;20.336;2022-07-22T06:13:31;12.52;;;7.18;;
55330;SDS011;58851;42.984;20.336;2022-07-22T06:15:57;13.65;;;8.00;;
55330;SDS011;58851;42.984;20.336;2022-07-22T06:18:24;15.93;;;8.02;;
55330;SDS011;58851;42.984;20.336;2022-07-22T06:20:50;11.88;;;7.70;;
55330;SDS011;58851;42.984;20.336;2022-07-22T06:23:16;14.55;;;7.55;;
55330;SDS011;58851;42.984;20.336;2022-07-22T06:25:42;14.07;;;7.32;;
55330;SDS011;58851;42.984;20.336;2022-07-22T06:28:08;11.50;;;7.38;;
55330;SDS011;58851;42.984;20.336;2022-07-22T06:30:35;12.38;;;7.20;;
55330;SDS011;58851;42.984;20.336;2022-07-22T06:33:01;14.95;;;7.72;;
55330;SDS011;58851;42.984;20.336;2022-07-22T06:35:26;14.68;;;7.57;;
55330;SDS011;58851;42.984;20.336;2022-07-22T06:37:52;11.65;;;7.45;;
55330;SDS011;58851;42.984;20.336;2022-07-22T06:40:18;11.82;;;7.50;;
55330;SDS011;58851;42.984;20.336;2022-07-22T06:42:44;17.23;;;8.20;;
55330;SDS011;58851;42.984;20.336;2022-07-22T06:45:10;17.27;;;8.43;;
55330;SDS011;58851;42.984;20.336;2022-07-22T06:47:36;12.80;;;7.45;;
55330;SDS011;58851;42.984;20.336;2022-07-22T06:50:05;12.57;;;7.28;;
55330;SDS011;58851;42.984;20.336;2022-07-22T06:52:32;14.75;;;7.78;;
55330;SDS011;58851;42.984;20.336;2022-07-22T06:54:58;11.30;;;6.65;;
55330;SDS011;58851;42.984;20.336;2022-07-22T06:57:24;11.10;;;7.00;;
55330;SDS011;58851;42.984;20.336;2022-07-22T06:59:50;11.25;;;6.15;;
55330;SDS011;58851;42.984;20.336;2022-07-22T07:02:16;15.25;;;6.90;;
55330;SDS011;58851;42.984;20.336;2022-07-22T07:04:42;13.35;;;7.35;;
55330;SDS011;58851;42.984;20.336;2022-07-22T07:07:08;20.55;;;6.78;;
55330;SDS011;58851;42.984;20.336;2022-07-22T07:09:34;12.77;;;7.38;;
55330;SDS011;58851;42.984;20.336;2022-07-22T07:12:00;15.10;;;7.18;;
55330;SDS011;58851;42.984;20.336;2022-07-22T07:14:26;11.52;;;6.47;;
55330;SDS011;58851;42.984;20.336;2022-07-22T07:16:52;9.88;;;6.55;;
55330;SDS011;58851;42.984;20.336;2022-07-22T07:19:18;13.25;;;6.43;;
55330;SDS011;58851;42.984;20.336;2022-07-22T07:21:45;13.45;;;7.35;;
55330;SDS011;58851;42.984;20.336;2022-07-22T07:24:11;17.75;;;7.28;;
55330;SDS011;58851;42.984;20.336;2022-07-22T07:26:37;14.35;;;6.63;;
55330;SDS011;58851;42.984;20.336;2022-07-22T07:29:03;13.18;;;7.88;;
55330;SDS011;58851;42.984;20.336;2022-07-22T07:31:29;20.20;;;6.93;;
55330;SDS011;58851;42.984;20.336;2022-07-22T07:33:55;16.90;;;6.47;;
55330;SDS011;58851;42.984;20.336;2022-07-22T07:36:21;13.82;;;6.80;;
55330;SDS011;58851;42.984;20.336;2022-07-22T07:38:48;19.73;;;6.53;;
55330;SDS011;58851;42.984;20.336;2022-07-22T07:41:14;11.20;;;6.53;;
55330;SDS011;58851;42.984;20.336;2022-07-22T07:43:41;11.95;;;7.13;;
55330;SDS011;58851;42.984;20.336;2022-07-22T07:46:07;18.33;;;7.18;;
55330;SDS011;58851;42.984;20.336;2022-07-22T07:48:32;10.13;;;5.40;;
55330;SDS011;58851;42.984;20.336;2022-07-22T07:50:58;16.08;;;6.70;;
55330;SDS011;58851;42.984;20.336;2022-07-22T07:53:25;14.63;;;7.50;;
55330;SDS011;58851;42.984;20.336;2022-07-22T07:55:51;16.77;;;6.25;;
55330;SDS011;58851;42.984;20.336;2022-07-22T07:58:17;12.40;;;6.22;;
55330;SDS011;58851;42.984;20.336;2022-07-22T08:00:43;14.95;;;7.25;;
55330;SDS011;58851;42.984;20.336;2022-07-22T08:03:10;13.77;;;6.07;;
55330;SDS011;58851;42.984;20.336;2022-07-22T08:05:36;15.23;;;5.90;;
55330;SDS011;58851;42.984;20.336;2022-07-22T08:08:04;11.00;;;6.25;;
55330;SDS011;58851;42.984;20.336;2022-07-22T08:10:31;11.82;;;5.65;;
55330;SDS011;58851;42.984;20.336;2022-07-22T08:12:57;13.73;;;6.03;;
55330;SDS011;58851;42.984;20.336;2022-07-22T08:15:24;15.95;;;6.00;;
55330;SDS011;58851;42.984;20.336;2022-07-22T08:17:52;10.68;;;5.60;;
55330;SDS011;58851;42.984;20.336;2022-07-22T08:20:18;9.93;;;4.75;;
55330;SDS011;58851;42.984;20.336;2022-07-22T08:22:44;11.77;;;5.82;;
55330;SDS011;58851;42.984;20.336;2022-07-22T08:25:10;15.52;;;5.32;;
55330;SDS011;58851;42.984;20.336;2022-07-22T08:27:35;7.38;;;4.00;;
55330;SDS011;58851;42.984;20.336;2022-07-22T08:30:02;11.68;;;4.43;;
55330;SDS011;58851;42.984;20.336;2022-07-22T08:32:30;9.13;;;3.95;;
55330;SDS011;58851;42.984;20.336;2022-07-22T08:34:57;11.77;;;4.75;;
55330;SDS011;58851;42.984;20.336;2022-07-22T08:37:24;9.73;;;4.80;;
55330;SDS011;58851;42.984;20.336;2022-07-22T08:39:50;13.10;;;4.88;;
55330;SDS011;58851;42.984;20.336;2022-07-22T08:42:19;11.27;;;4.00;;
55330;SDS011;58851;42.984;20.336;2022-07-22T08:44:46;7.82;;;3.78;;
55330;SDS011;58851;42.984;20.336;2022-07-22T08:47:13;7.72;;;4.40;;
55330;SDS011;58851;42.984;20.336;2022-07-22T08:49:39;14.38;;;4.50;;
55330;SDS011;58851;42.984;20.336;2022-07-22T08:52:05;9.25;;;3.20;;
55330;SDS011;58851;42.984;20.336;2022-07-22T08:54:31;13.65;;;3.95;;
55330;SDS011;58851;42.984;20.336;2022-07-22T08:56:56;8.07;;;4.20;;
55330;SDS011;58851;42.984;20.336;2022-07-22T08:59:22;10.55;;;4.13;;
55330;SDS011;58851;42.984;20.336;2022-07-22T09:02:01;14.38;;;4.32;;
55330;SDS011;58851;42.984;20.336;2022-07-22T09:04:32;11.85;;;4.03;;
55330;SDS011;58851;42.984;20.336;2022-07-22T09:07:20;7.82;;;4.13;;
55330;SDS011;58851;42.984;20.336;2022-07-22T09:09:52;12.50;;;4.18;;
55330;SDS011;58851;42.984;20.336;2022-07-22T09:12:18;8.27;;;4.00;;
55330;SDS011;58851;42.984;20.336;2022-07-22T09:14:45;9.98;;;3.63;;
55330;SDS011;58851;42.984;20.336;2022-07-22T09:17:26;10.75;;;4.63;;
55330;SDS011;58851;42.984;20.336;2022-07-22T09:19:53;9.27;;;4.80;;
55330;SDS011;58851;42.984;20.336;2022-07-22T09:22:39;14.50;;;4.10;;
55330;SDS011;58851;42.984;20.336;2022-07-22T09:25:18;9.52;;;3.67;;
55330;SDS011;58851;42.984;20.336;2022-07-22T09:27:44;11.00;;;4.45;;
55330;SDS011;58851;42.984;20.336;2022-07-22T09:30:14;7.10;;;3.70;;
55330;SDS011;58851;42.984;20.336;2022-07-22T09:32:44;9.70;;;3.95;;
55330;SDS011;58851;42.984;20.336;2022-07-22T09:35:11;18.55;;;4.13;;
55330;SDS011;58851;42.984;20.336;2022-07-22T09:37:42;11.38;;;4.38;;
55330;SDS011;58851;42.984;20.336;2022-07-22T09:40:16;11.43;;;4.18;;
55330;SDS011;58851;42.984;20.336;2022-07-22T09:42:53;10.50;;;4.10;;
55330;SDS011;58851;42.984;20.336;2022-07-22T09:45:21;11.43;;;3.58;;
55330;SDS011;58851;42.984;20.336;2022-07-22T09:47:49;7.45;;;4.05;;
55330;SDS011;58851;42.984;20.336;2022-07-22T09:50:16;6.82;;;3.80;;
55330;SDS011;58851;42.984;20.336;2022-07-22T09:52:53;10.57;;;3.95;;
55330;SDS011;58851;42.984;20.336;2022-07-22T09:55:24;12.20;;;3.88;;
55330;SDS011;58851;42.984;20.336;2022-07-22T09:57:52;16.50;;;4.75;;
55330;SDS011;58851;42.984;20.336;2022-07-22T10:00:20;10.63;;;4.80;;
55330;SDS011;58851;42.984;20.336;2022-07-22T10:02:49;13.20;;;4.50;;
55330;SDS011;58851;42.984;20.336;2022-07-22T10:05:22;10.57;;;3.75;;
55330;SDS011;58851;42.984;20.336;2022-07-22T10:07:55;11.30;;;4.10;;
55330;SDS011;58851;42.984;20.336;2022-07-22T10:10:26;12.60;;;3.75;;
55330;SDS011;58851;42.984;20.336;2022-07-22T10:12:54;9.18;;;3.47;;
55330;SDS011;58851;42.984;20.336;2022-07-22T10:15:22;8.82;;;4.15;;
55330;SDS011;58851;42.984;20.336;2022-07-22T10:17:51;7.47;;;3.80;;
55330;SDS011;58851;42.984;20.336;2022-07-22T10:20:22;10.85;;;3.50;;
55330;SDS011;58851;42.984;20.336;2022-07-22T10:22:56;10.75;;;3.88;;
55330;SDS011;58851;42.984;20.336;2022-07-22T10:25:31;12.75;;;3.90;;
55330;SDS011;58851;42.984;20.336;2022-07-22T10:28:22;9.00;;;3.72;;
55330;SDS011;58851;42.984;20.336;2022-07-22T10:30:53;8.50;;;4.10;;
55330;SDS011;58851;42.984;20.336;2022-07-22T10:33:38;16.27;;;4.03;;
55330;SDS011;58851;42.984;20.336;2022-07-22T10:36:05;9.77;;;3.70;;
55330;SDS011;58851;42.984;20.336;2022-07-22T10:38:32;9.68;;;5.15;;
55330;SDS011;58851;42.984;20.336;2022-07-22T10:41:02;8.25;;;4.15;;
55330;SDS011;58851;42.984;20.336;2022-07-22T10:43:30;12.27;;;4.38;;
55330;SDS011;58851;42.984;20.336;2022-07-22T10:46:10;13.77;;;4.40;;
55330;SDS011;58851;42.984;20.336;2022-07-22T10:51:14;8.10;;;4.30;;
55330;SDS011;58851;42.984;20.336;2022-07-22T10:53:54;15.05;;;5.15;;
55330;SDS011;58851;42.984;20.336;2022-07-22T10:56:26;12.05;;;4.60;;
55330;SDS011;58851;42.984;20.336;2022-07-22T11:01:35;17.20;;;4.93;;
55330;SDS011;58851;42.984;20.336;2022-07-22T11:04:07;18.65;;;4.57;;
55330;SDS011;58851;42.984;20.336;2022-07-22T11:06:52;7.05;;;4.05;;
55330;SDS011;58851;42.984;20.336;2022-07-22T11:09:21;9.90;;;4.68;;
55330;SDS011;58851;42.984;20.336;2022-07-22T11:11:57;11.70;;;3.72;;
55330;SDS011;58851;42.984;20.336;2022-07-22T11:14:27;11.50;;;4.05;;
55330;SDS011;58851;42.984;20.336;2022-07-22T11:17:05;7.57;;;3.92;;
55330;SDS011;58851;42.984;20.336;2022-07-22T11:19:33;11.75;;;4.35;;
55330;SDS011;58851;42.984;20.336;2022-07-22T11:22:04;13.98;;;4.60;;
55330;SDS011;58851;42.984;20.336;2022-07-22T11:24:39;12.05;;;3.90;;
55330;SDS011;58851;42.984;20.336;2022-07-22T11:27:09;12.10;;;4.35;;
55330;SDS011;58851;42.984;20.336;2022-07-22T11:29:40;10.63;;;4.15;;
55330;SDS011;58851;42.984;20.336;2022-07-22T11:32:10;9.75;;;4.47;;
55330;SDS011;58851;42.984;20.336;2022-07-22T11:34:38;11.05;;;4.32;;
55330;SDS011;58851;42.984;20.336;2022-07-22T11:37:11;11.90;;;4.07;;
55330;SDS011;58851;42.984;20.336;2022-07-22T11:39:38;14.02;;;4.88;;
55330;SDS011;58851;42.984;20.336;2022-07-22T11:42:04;8.95;;;4.38;;
55330;SDS011;58851;42.984;20.336;2022-07-22T11:44:32;11.88;;;4.63;;
55330;SDS011;58851;42.984;20.336;2022-07-22T11:47:00;11.05;;;4.45;;
55330;SDS011;58851;42.984;20.336;2022-07-22T11:49:27;12.23;;;4.32;;
55330;SDS011;58851;42.984;20.336;2022-07-22T11:51:55;18.33;;;4.82;;
55330;SDS011;58851;42.984;20.336;2022-07-22T11:54:21;10.05;;;3.88;;
55330;SDS011;58851;42.984;20.336;2022-07-22T11:56:47;8.32;;;3.90;;
55330;SDS011;58851;42.984;20.336;2022-07-22T11:59:16;9.15;;;4.25;;
55330;SDS011;58851;42.984;20.336;2022-07-22T12:01:43;8.48;;;4.47;;
55330;SDS011;58851;42.984;20.336;2022-07-22T12:04:12;11.40;;;4.50;;
55330;SDS011;58851;42.984;20.336;2022-07-22T12:06:42;9.90;;;4.18;;
55330;SDS011;58851;42.984;20.336;2022-07-22T12:09:10;10.43;;;4.15;;
55330;SDS011;58851;42.984;20.336;2022-07-22T12:11:39;13.45;;;3.83;;
55330;SDS011;58851;42.984;20.336;2022-07-22T12:14:11;13.70;;;4.18;;
55330;SDS011;58851;42.984;20.336;2022-07-22T12:16:43;9.70;;;4.05;;
55330;SDS011;58851;42.984;20.336;2022-07-22T12:19:18;14.85;;;4.07;;
55330;SDS011;58851;42.984;20.336;2022-07-22T12:21:51;13.48;;;4.10;;
55330;SDS011;58851;42.984;20.336;2022-07-22T12:27:17;12.32;;;3.85;;
55330;SDS011;58851;42.984;20.336;2022-07-22T12:29:47;6.67;;;3.53;;
55330;SDS011;58851;42.984;20.336;2022-07-22T12:32:15;11.70;;;4.35;;
55330;SDS011;58851;42.984;20.336;2022-07-22T12:34:42;13.05;;;4.10;;
55330;SDS011;58851;42.984;20.336;2022-07-22T12:37:11;15.63;;;5.05;;
55330;SDS011;58851;42.984;20.336;2022-07-22T12:42:46;13.30;;;4.05;;
55330;SDS011;58851;42.984;20.336;2022-07-22T12:45:27;6.80;;;3.75;;
55330;SDS011;58851;42.984;20.336;2022-07-22T12:47:55;11.45;;;4.28;;
55330;SDS011;58851;42.984;20.336;2022-07-22T12:50:38;20.48;;;11.48;;
55330;SDS011;58851;42.984;20.336;2022-07-22T12:53:12;9.90;;;3.58;;
55330;SDS011;58851;42.984;20.336;2022-07-22T12:58:11;12.25;;;3.95;;
55330;SDS011;58851;42.984;20.336;2022-07-22T13:00:39;8.45;;;3.58;;
55330;SDS011;58851;42.984;20.336;2022-07-22T13:03:07;15.10;;;5.80;;
55330;SDS011;58851;42.984;20.336;2022-07-22T13:05:33;5.82;;;3.55;;
55330;SDS011;58851;42.984;20.336;2022-07-22T13:08:00;8.95;;;3.78;;
55330;SDS011;58851;42.984;20.336;2022-07-22T13:10:27;9.80;;;3.90;;
55330;SDS011;58851;42.984;20.336;2022-07-22T13:12:53;8.88;;;3.78;;
55330;SDS011;58851;42.984;20.336;2022-07-22T13:15:19;14.25;;;4.68;;
55330;SDS011;58851;42.984;20.336;2022-07-22T13:17:46;6.97;;;3.55;;
55330;SDS011;58851;42.984;20.336;2022-07-22T13:20:12;9.02;;;3.22;;
55330;SDS011;58851;42.984;20.336;2022-07-22T13:22:41;10.27;;;3.47;;
55330;SDS011;58851;42.984;20.336;2022-07-22T13:25:08;11.95;;;4.13;;
55330;SDS011;58851;42.984;20.336;2022-07-22T13:27:34;9.45;;;6.40;;
55330;SDS011;58851;42.984;20.336;2022-07-22T13:30:00;8.57;;;4.78;;
55330;SDS011;58851;42.984;20.336;2022-07-22T13:32:27;8.48;;;3.90;;
55330;SDS011;58851;42.984;20.336;2022-07-22T13:34:52;7.57;;;4.38;;
55330;SDS011;58851;42.984;20.336;2022-07-22T13:37:19;6.90;;;3.95;;
55330;SDS011;58851;42.984;20.336;2022-07-22T13:39:46;11.30;;;4.50;;
55330;SDS011;58851;42.984;20.336;2022-07-22T13:42:12;12.85;;;3.95;;
55330;SDS011;58851;42.984;20.336;2022-07-22T13:44:42;12.18;;;4.15;;
55330;SDS011;58851;42.984;20.336;2022-07-22T13:47:09;10.27;;;3.88;;
55330;SDS011;58851;42.984;20.336;2022-07-22T13:49:35;8.23;;;4.18;;
55330;SDS011;58851;42.984;20.336;2022-07-22T13:52:01;11.77;;;3.90;;
55330;SDS011;58851;42.984;20.336;2022-07-22T13:54:27;14.07;;;3.42;;
55330;SDS011;58851;42.984;20.336;2022-07-22T13:56:53;7.35;;;4.22;;
55330;SDS011;58851;42.984;20.336;2022-07-22T13:59:19;31.38;;;6.05;;
55330;SDS011;58851;42.984;20.336;2022-07-22T14:01:48;9.95;;;4.00;;
55330;SDS011;58851;42.984;20.336;2022-07-22T14:04:14;9.98;;;3.67;;
55330;SDS011;58851;42.984;20.336;2022-07-22T14:06:40;6.28;;;3.80;;
55330;SDS011;58851;42.984;20.336;2022-07-22T14:09:05;11.45;;;3.55;;
55330;SDS011;58851;42.984;20.336;2022-07-22T14:11:31;10.93;;;3.85;;
55330;SDS011;58851;42.984;20.336;2022-07-22T14:13:57;11.98;;;3.63;;
55330;SDS011;58851;42.984;20.336;2022-07-22T14:16:23;12.80;;;3.97;;
55330;SDS011;58851;42.984;20.336;2022-07-22T14:21:28;9.48;;;3.72;;
55330;SDS011;58851;42.984;20.336;2022-07-22T14:23:54;10.65;;;3.58;;
55330;SDS011;58851;42.984;20.336;2022-07-22T14:26:20;21.92;;;19.80;;
55330;SDS011;58851;42.984;20.336;2022-07-22T14:28:46;8.88;;;7.05;;
55330;SDS011;58851;42.984;20.336;2022-07-22T14:31:11;7.22;;;4.72;;
55330;SDS011;58851;42.984;20.336;2022-07-22T14:33:37;6.63;;;3.67;;
55330;SDS011;58851;42.984;20.336;2022-07-22T14:36:03;8.63;;;3.70;;
55330;SDS011;58851;42.984;20.336;2022-07-22T14:38:29;10.27;;;3.65;;
55330;SDS011;58851;42.984;20.336;2022-07-22T14:40:55;10.20;;;3.83;;
55330;SDS011;58851;42.984;20.336;2022-07-22T14:43:21;15.15;;;4.03;;